Time;durP1;ratioP1;P1;durP2;ratioP2;P2;SDS_P1;SDS_P2;PMS_P1;PMS_P2;Temp;Humidity;BMP_temperature;BMP_pressure;BME280_temperature;BME280_humidity;BME280_pressure;Samples;Min_cycle;Max_cycle;Signal;HPM_P1;HPM_P2
2021/08/05 00:00:00;;;;;;;9.05;5.12;;;;;;;;;;726221;192;919404;-66
2021/08/05 00:02:26;;;;;;;7.60;5.37;;;;;;;;;;729119;191;874144;-66
2021/08/05 00:04:52;;;;;;;8.87;5.60;;;;;;;;;;733434;190;631446;-67
2021/08/05 00:07:18;;;;;;;9.00;5.80;;;;;;;;;;736914;192;640575;-67
2021/08/05 00:09:44;;;;;;;11.03;5.70;;;;;;;;;;732700;189;622882;-67
2021/08/05 00:12:10;;;;;;;6.47;5.77;;;;;;;;;;728337;191;920569;-68
2021/08/05 00:14:35;;;;;;;10.05;6.35;;;;;;;;;;732480;192;919054;-68
2021/08/05 00:17:01;;;;;;;7.23;5.87;;;;;;;;;;729879;191;919462;-67
2021/08/05 00:19:27;;;;;;;11.05;5.78;;;;;;;;;;727587;192;919422;-67
2021/08/05 00:21:53;;;;;;;11.93;6.40;;;;;;;;;;731899;190;919825;-67
2021/08/05 00:24:19;;;;;;;7.20;5.97;;;;;;;;;;726134;192;920754;-68
2021/08/05 00:26:45;;;;;;;8.43;6.30;;;;;;;;;;726939;192;919097;-67
2021/08/05 00:29:11;;;;;;;8.93;7.10;;;;;;;;;;724863;192;1431141;-67
2021/08/05 00:31:37;;;;;;;8.80;7.03;;;;;;;;;;732968;188;919442;-67
2021/08/05 00:34:03;;;;;;;9.90;7.43;;;;;;;;;;725616;190;919719;-67
2021/08/05 00:36:28;;;;;;;12.70;7.23;;;;;;;;;;727171;191;920327;-67
2021/08/05 00:38:54;;;;;;;7.53;6.53;;;;;;;;;;731834;191;915348;-68
2021/08/05 00:41:20;;;;;;;7.20;6.10;;;;;;;;;;726014;192;915843;-68
2021/08/05 00:43:46;;;;;;;7.55;6.40;;;;;;;;;;726983;192;919181;-68
2021/08/05 00:46:12;;;;;;;10.33;7.07;;;;;;;;;;730899;191;918843;-68
2021/08/05 00:48:38;;;;;;;13.15;7.97;;;;;;;;;;726178;192;919548;-68
2021/08/05 00:51:03;;;;;;;11.20;7.47;;;;;;;;;;725878;193;919294;-69
2021/08/05 00:53:29;;;;;;;7.67;6.93;;;;;;;;;;731017;193;919442;-69
2021/08/05 00:55:55;;;;;;;9.50;7.90;;;;;;;;;;725010;192;919018;-69
2021/08/05 00:58:21;;;;;;;10.80;7.13;;;;;;;;;;726812;192;920634;-68
2021/08/05 01:00:49;;;;;;;12.17;7.57;;;;;;;;;;725911;192;923888;-67
2021/08/05 01:03:16;;;;;;;9.60;7.67;;;;;;;;;;731380;190;918527;-68
2021/08/05 01:05:42;;;;;;;10.90;7.33;;;;;;;;;;725926;191;919590;-68
2021/08/05 01:08:09;;;;;;;11.73;7.60;;;;;;;;;;727960;192;919196;-68
2021/08/05 01:10:36;;;;;;;15.00;8.33;;;;;;;;;;731293;191;919726;-67
2021/08/05 01:13:04;;;;;;;9.37;7.23;;;;;;;;;;729857;192;919319;-68
2021/08/05 01:15:28;;;;;;;11.97;8.03;;;;;;;;;;729000;190;919419;-66
2021/08/05 01:17:54;;;;;;;9.67;7.40;;;;;;;;;;729757;191;920247;-66
2021/08/05 01:20:20;;;;;;;12.53;8.90;;;;;;;;;;734267;189;917196;-66
2021/08/05 01:22:46;;;;;;;10.10;8.20;;;;;;;;;;729636;191;919672;-66
2021/08/05 01:25:12;;;;;;;11.43;8.47;;;;;;;;;;729408;191;919038;-66
2021/08/05 01:27:38;;;;;;;9.20;7.80;;;;;;;;;;732265;190;919170;-67
2021/08/05 01:30:05;;;;;;;9.53;7.73;;;;;;;;;;723619;192;918115;-68
2021/08/05 01:32:30;;;;;;;8.87;7.07;;;;;;;;;;727758;192;920620;-68
2021/08/05 01:34:56;;;;;;;11.90;8.43;;;;;;;;;;731123;192;919910;-67
2021/08/05 01:37:22;;;;;;;11.10;8.27;;;;;;;;;;730358;191;631699;-67
2021/08/05 01:39:48;;;;;;;12.30;7.87;;;;;;;;;;732596;191;627888;-68
2021/08/05 01:42:14;;;;;;;13.07;8.33;;;;;;;;;;730676;190;637842;-67
2021/08/05 01:44:39;;;;;;;8.37;7.43;;;;;;;;;;739185;189;722217;-68
2021/08/05 01:47:05;;;;;;;15.53;8.03;;;;;;;;;;731641;190;620244;-68
2021/08/05 01:49:31;;;;;;;10.65;8.32;;;;;;;;;;727394;191;919736;-68
2021/08/05 01:51:57;;;;;;;10.53;8.77;;;;;;;;;;731960;192;916696;-69
2021/08/05 01:54:23;;;;;;;10.57;7.93;;;;;;;;;;727495;190;916125;-67
2021/08/05 01:56:49;;;;;;;13.83;8.07;;;;;;;;;;727449;191;915972;-67
2021/08/05 01:59:15;;;;;;;12.60;8.20;;;;;;;;;;730898;193;917408;-66
2021/08/05 02:01:40;;;;;;;10.07;8.10;;;;;;;;;;726891;191;915383;-67
2021/08/05 02:04:06;;;;;;;12.20;8.57;;;;;;;;;;726997;190;923740;-68
2021/08/05 02:06:32;;;;;;;13.20;7.93;;;;;;;;;;731197;191;918292;-67
2021/08/05 02:08:59;;;;;;;9.90;7.83;;;;;;;;;;726629;191;920661;-66
2021/08/05 02:11:25;;;;;;;10.90;8.50;;;;;;;;;;727440;192;918629;-66
2021/08/05 02:13:50;;;;;;;10.03;8.27;;;;;;;;;;725756;192;919072;-67
2021/08/05 02:16:17;;;;;;;17.90;8.93;;;;;;;;;;732661;192;919359;-68
2021/08/05 02:18:45;;;;;;;12.23;8.80;;;;;;;;;;724154;193;919875;-66
2021/08/05 02:21:11;;;;;;;11.53;8.17;;;;;;;;;;725495;191;918549;-67
2021/08/05 02:23:36;;;;;;;16.10;8.53;;;;;;;;;;731570;190;917857;-67
2021/08/05 02:26:02;;;;;;;11.87;10.20;;;;;;;;;;727394;191;920048;-68
2021/08/05 02:28:28;;;;;;;11.95;8.50;;;;;;;;;;728438;190;918885;-67
2021/08/05 02:30:54;;;;;;;14.60;9.87;;;;;;;;;;734879;192;918288;-68
2021/08/05 02:33:20;;;;;;;11.00;9.65;;;;;;;;;;727566;192;919314;-67
2021/08/05 02:35:47;;;;;;;14.87;10.53;;;;;;;;;;725641;192;921741;-67
2021/08/05 02:38:11;;;;;;;12.33;9.23;;;;;;;;;;725552;192;1020613;-66
2021/08/05 02:40:37;;;;;;;12.03;9.73;;;;;;;;;;733253;192;918641;-65
2021/08/05 02:43:03;;;;;;;11.53;10.30;;;;;;;;;;728963;190;919553;-66
2021/08/05 02:45:29;;;;;;;13.33;9.37;;;;;;;;;;728663;191;920054;-66
2021/08/05 02:47:55;;;;;;;11.80;10.23;;;;;;;;;;732204;192;920415;-66
2021/08/05 02:50:21;;;;;;;18.03;10.90;;;;;;;;;;726015;192;918475;-67
2021/08/05 02:52:47;;;;;;;14.20;10.90;;;;;;;;;;725201;192;919572;-66
2021/08/05 02:55:12;;;;;;;19.00;12.43;;;;;;;;;;730992;192;919597;-68
2021/08/05 02:57:38;;;;;;;17.80;13.30;;;;;;;;;;727540;192;919070;-67
2021/08/05 03:00:05;;;;;;;20.07;12.60;;;;;;;;;;728906;192;918419;-66
2021/08/05 03:02:31;;;;;;;18.27;13.87;;;;;;;;;;725483;190;918583;-68
2021/08/05 03:04:57;;;;;;;20.83;14.57;;;;;;;;;;726228;190;928280;-67
2021/08/05 03:07:25;;;;;;;15.97;13.07;;;;;;;;;;728072;191;917807;-67
2021/08/05 03:09:48;;;;;;;23.20;14.63;;;;;;;;;;726512;191;919276;-67
2021/08/05 03:12:14;;;;;;;20.50;15.63;;;;;;;;;;730606;192;917326;-67
2021/08/05 03:14:40;;;;;;;21.70;17.00;;;;;;;;;;725063;192;919488;-67
2021/08/05 03:17:06;;;;;;;26.97;16.23;;;;;;;;;;727127;192;918908;-66
2021/08/05 03:19:32;;;;;;;23.50;17.60;;;;;;;;;;731063;193;919283;-66
2021/08/05 03:21:57;;;;;;;26.03;19.50;;;;;;;;;;725548;193;919177;-67
2021/08/05 03:24:23;;;;;;;30.90;23.17;;;;;;;;;;724720;191;921842;-67
2021/08/05 03:26:49;;;;;;;26.50;19.90;;;;;;;;;;731858;192;904461;-68
2021/08/05 03:29:15;;;;;;;32.30;21.77;;;;;;;;;;726239;190;921373;-67
2021/08/05 03:31:41;;;;;;;32.77;21.37;;;;;;;;;;727509;190;914444;-66
2021/08/05 03:34:07;;;;;;;33.23;21.80;;;;;;;;;;724300;192;921195;-66
2021/08/05 03:36:33;;;;;;;28.30;21.03;;;;;;;;;;731338;191;914534;-66
2021/08/05 03:38:59;;;;;;;33.07;20.70;;;;;;;;;;728861;190;914732;-67
2021/08/05 03:41:25;;;;;;;41.90;24.40;;;;;;;;;;727424;191;914966;-68
2021/08/05 03:43:50;;;;;;;31.60;23.47;;;;;;;;;;732480;191;916165;-67
2021/08/05 03:46:16;;;;;;;37.90;24.77;;;;;;;;;;726795;191;915509;-67
2021/08/05 03:48:42;;;;;;;35.23;24.00;;;;;;;;;;725655;192;915417;-69
2021/08/05 03:51:08;;;;;;;32.73;24.10;;;;;;;;;;732805;191;906685;-67
2021/08/05 03:53:34;;;;;;;33.40;24.80;;;;;;;;;;726889;190;1017095;-68
2021/08/05 03:56:00;;;;;;;36.87;25.60;;;;;;;;;;728413;191;915218;-67
2021/08/05 03:58:25;;;;;;;44.40;25.60;;;;;;;;;;726801;191;903755;-66
2021/08/05 04:00:51;;;;;;;35.53;26.30;;;;;;;;;;736976;190;915381;-67
2021/08/05 04:03:17;;;;;;;37.43;26.93;;;;;;;;;;729956;192;616894;-68
2021/08/05 04:05:44;;;;;;;38.00;25.95;;;;;;;;;;729685;191;623765;-67
2021/08/05 04:08:10;;;;;;;38.77;26.83;;;;;;;;;;733725;191;911854;-67
2021/08/05 04:10:36;;;;;;;36.43;28.27;;;;;;;;;;726440;192;912855;-69
2021/08/05 04:13:01;;;;;;;42.47;27.07;;;;;;;;;;726872;191;919595;-67
2021/08/05 04:15:27;;;;;;;42.90;31.10;;;;;;;;;;726897;192;918874;-69
2021/08/05 04:17:53;;;;;;;51.67;31.40;;;;;;;;;;726666;191;1022262;-70
2021/08/05 04:20:21;;;;;;;50.87;31.03;;;;;;;;;;727210;191;918464;-68
2021/08/05 04:22:45;;;;;;;52.13;32.73;;;;;;;;;;725245;193;919472;-68
2021/08/05 04:25:11;;;;;;;51.10;31.77;;;;;;;;;;726038;192;919009;-69
2021/08/05 04:27:37;;;;;;;44.47;30.37;;;;;;;;;;729638;192;920031;-69
2021/08/05 04:30:03;;;;;;;44.03;30.10;;;;;;;;;;728114;191;919750;-69
2021/08/05 04:32:29;;;;;;;44.40;29.67;;;;;;;;;;728553;192;919007;-69
2021/08/05 04:34:54;;;;;;;41.50;27.97;;;;;;;;;;727162;193;918597;-69
2021/08/05 04:37:20;;;;;;;47.80;29.47;;;;;;;;;;728627;191;919622;-69
2021/08/05 04:39:46;;;;;;;43.17;29.40;;;;;;;;;;725584;192;920189;-68
2021/08/05 04:42:12;;;;;;;39.57;28.90;;;;;;;;;;724957;190;1054523;-69
2021/08/05 04:44:38;;;;;;;37.17;26.17;;;;;;;;;;728219;192;917851;-68
2021/08/05 04:47:04;;;;;;;35.53;25.33;;;;;;;;;;726338;193;919629;-68
2021/08/05 04:49:29;;;;;;;35.73;25.10;;;;;;;;;;727693;190;918950;-68
2021/08/05 04:51:55;;;;;;;36.77;25.47;;;;;;;;;;729294;192;919417;-69
2021/08/05 04:54:21;;;;;;;36.73;24.97;;;;;;;;;;729219;192;918848;-71
2021/08/05 04:56:47;;;;;;;26.70;21.10;;;;;;;;;;727299;191;918570;-70
2021/08/05 04:59:13;;;;;;;28.43;21.47;;;;;;;;;;729406;192;918331;-71
2021/08/05 05:01:39;;;;;;;24.67;16.80;;;;;;;;;;723814;192;934438;-68
2021/08/05 05:04:05;;;;;;;24.67;19.60;;;;;;;;;;723495;193;919029;-68
2021/08/05 05:06:30;;;;;;;24.77;18.80;;;;;;;;;;730362;188;919430;-68
2021/08/05 05:08:56;;;;;;;26.10;18.97;;;;;;;;;;725607;190;916836;-67
2021/08/05 05:11:22;;;;;;;22.87;16.70;;;;;;;;;;726030;192;919528;-67
2021/08/05 05:13:48;;;;;;;24.50;16.73;;;;;;;;;;725711;192;939548;-70
2021/08/05 05:16:14;;;;;;;25.73;18.37;;;;;;;;;;727977;192;919408;-69
2021/08/05 05:18:40;;;;;;;19.75;16.30;;;;;;;;;;728091;192;919418;-67
2021/08/05 05:21:05;;;;;;;27.87;19.10;;;;;;;;;;727851;192;919290;-68
2021/08/05 05:23:31;;;;;;;21.60;17.20;;;;;;;;;;726872;191;921054;-66
2021/08/05 05:25:57;;;;;;;24.40;16.93;;;;;;;;;;724783;191;919420;-66
2021/08/05 05:28:23;;;;;;;21.80;17.60;;;;;;;;;;727376;192;919384;-66
2021/08/05 05:30:49;;;;;;;19.53;15.53;;;;;;;;;;725922;191;919332;-66
2021/08/05 05:33:15;;;;;;;20.87;16.90;;;;;;;;;;727288;191;919561;-67
2021/08/05 05:35:41;;;;;;;18.67;15.20;;;;;;;;;;723296;190;918863;-68
2021/08/05 05:38:07;;;;;;;22.63;15.10;;;;;;;;;;723738;192;919091;-67
2021/08/05 05:40:33;;;;;;;19.00;15.80;;;;;;;;;;725499;192;919421;-68
2021/08/05 05:43:00;;;;;;;20.10;17.40;;;;;;;;;;723969;191;918571;-69
2021/08/05 05:45:25;;;;;;;21.17;15.87;;;;;;;;;;727508;190;916955;-70
2021/08/05 05:47:50;;;;;;;16.10;14.43;;;;;;;;;;726016;192;1124596;-68
2021/08/05 05:50:16;;;;;;;15.30;13.70;;;;;;;;;;726273;191;1029444;-68
2021/08/05 05:52:42;;;;;;;14.33;12.27;;;;;;;;;;727083;191;921568;-69
2021/08/05 05:55:08;;;;;;;13.73;12.10;;;;;;;;;;724690;193;916360;-68
2021/08/05 05:57:34;;;;;;;15.87;13.37;;;;;;;;;;730938;192;920088;-67
2021/08/05 06:00:00;;;;;;;15.30;12.73;;;;;;;;;;727617;191;883704;-68
2021/08/05 06:02:26;;;;;;;12.50;11.20;;;;;;;;;;727100;192;919283;-69
2021/08/05 06:04:51;;;;;;;13.10;11.80;;;;;;;;;;724118;192;918156;-68
2021/08/05 06:07:17;;;;;;;13.40;11.10;;;;;;;;;;731622;192;919213;-69
2021/08/05 06:09:43;;;;;;;12.07;10.80;;;;;;;;;;727252;191;919116;-69
2021/08/05 06:12:09;;;;;;;17.57;13.13;;;;;;;;;;730206;192;918411;-69
2021/08/05 06:14:35;;;;;;;15.77;11.67;;;;;;;;;;732197;192;919554;-68
2021/08/05 06:17:01;;;;;;;12.10;10.77;;;;;;;;;;726294;192;916505;-70
2021/08/05 06:19:27;;;;;;;15.47;12.53;;;;;;;;;;726679;191;914763;-69
2021/08/05 06:21:53;;;;;;;17.80;12.23;;;;;;;;;;733033;191;916519;-68
2021/08/05 06:24:19;;;;;;;13.83;12.37;;;;;;;;;;726155;191;936721;-69
2021/08/05 06:26:46;;;;;;;18.07;12.10;;;;;;;;;;725858;192;914946;-69
2021/08/05 06:29:11;;;;;;;15.90;11.23;;;;;;;;;;725524;192;918738;-69
2021/08/05 06:31:37;;;;;;;14.07;11.70;;;;;;;;;;732607;192;919534;-69
2021/08/05 06:34:02;;;;;;;13.83;12.13;;;;;;;;;;727002;192;919454;-67
2021/08/05 06:36:28;;;;;;;14.47;12.70;;;;;;;;;;724817;192;919515;-69
2021/08/05 06:38:54;;;;;;;13.00;11.33;;;;;;;;;;730302;192;919438;-68
2021/08/05 06:41:20;;;;;;;13.90;11.03;;;;;;;;;;726330;191;923124;-69
2021/08/05 06:43:46;;;;;;;11.77;10.57;;;;;;;;;;727961;191;919276;-68
2021/08/05 06:46:12;;;;;;;12.33;11.00;;;;;;;;;;731109;191;919269;-70
2021/08/05 06:48:37;;;;;;;11.07;9.57;;;;;;;;;;725938;191;919546;-70
2021/08/05 06:51:03;;;;;;;14.57;10.80;;;;;;;;;;725961;191;918651;-69
2021/08/05 06:53:29;;;;;;;11.52;9.13;;;;;;;;;;728437;192;920290;-70
2021/08/05 06:55:55;;;;;;;10.67;9.57;;;;;;;;;;732558;189;919641;-69
2021/08/05 06:58:22;;;;;;;10.17;8.13;;;;;;;;;;724460;190;919331;-70
2021/08/05 07:00:47;;;;;;;7.70;6.63;;;;;;;;;;726540;191;919476;-71
2021/08/05 07:03:13;;;;;;;7.70;6.80;;;;;;;;;;731841;192;919070;-72
2021/08/05 07:05:39;;;;;;;7.43;6.23;;;;;;;;;;726001;191;919665;-66
2021/08/05 07:08:05;;;;;;;7.12;5.68;;;;;;;;;;724594;190;919609;-69
2021/08/05 07:10:31;;;;;;;7.73;6.97;;;;;;;;;;730991;191;957285;-66
2021/08/05 07:12:56;;;;;;;7.03;6.20;;;;;;;;;;728119;191;919262;-68
2021/08/05 07:15:22;;;;;;;7.83;6.33;;;;;;;;;;727443;192;919426;-68
2021/08/05 07:17:48;;;;;;;7.07;6.17;;;;;;;;;;732550;192;919742;-69
2021/08/05 07:20:14;;;;;;;8.07;5.23;;;;;;;;;;728515;190;918973;-68
2021/08/05 07:22:40;;;;;;;7.80;6.00;;;;;;;;;;727010;191;919417;-68
2021/08/05 07:25:07;;;;;;;6.43;4.90;;;;;;;;;;725036;193;919446;-68
2021/08/05 07:27:32;;;;;;;5.10;4.60;;;;;;;;;;735172;190;914534;-69
2021/08/05 07:29:58;;;;;;;8.80;5.90;;;;;;;;;;725545;192;919644;-68
2021/08/05 07:32:24;;;;;;;7.43;5.77;;;;;;;;;;725860;192;919165;-67
2021/08/05 07:34:49;;;;;;;7.00;4.40;;;;;;;;;;729334;192;918693;-68
2021/08/05 07:37:15;;;;;;;7.23;5.20;;;;;;;;;;727287;192;919237;-69
2021/08/05 07:39:41;;;;;;;8.20;7.30;;;;;;;;;;728378;191;918906;-69
2021/08/05 07:42:07;;;;;;;6.33;4.90;;;;;;;;;;734364;192;869679;-68
2021/08/05 07:44:33;;;;;;;7.20;5.90;;;;;;;;;;726417;192;919250;-68
2021/08/05 07:46:59;;;;;;;5.17;4.20;;;;;;;;;;727144;190;919113;-69
2021/08/05 07:49:28;;;;;;;4.20;3.50;;;;;;;;;;731763;192;919264;-69
2021/08/05 07:51:54;;;;;;;8.00;4.27;;;;;;;;;;734468;190;918985;-69
2021/08/05 07:54:20;;;;;;;7.82;4.43;;;;;;;;;;725346;191;921900;-70
2021/08/05 07:56:45;;;;;;;6.37;3.83;;;;;;;;;;725672;192;946629;-71
2021/08/05 07:59:11;;;;;;;4.30;3.90;;;;;;;;;;729794;192;1023648;-70
2021/08/05 08:01:37;;;;;;;4.53;3.80;;;;;;;;;;726359;192;920973;-72
2021/08/05 08:04:03;;;;;;;4.13;3.60;;;;;;;;;;725806;193;919342;-71
2021/08/05 08:06:29;;;;;;;4.63;3.50;;;;;;;;;;732658;192;920538;-69
2021/08/05 08:08:55;;;;;;;6.20;4.70;;;;;;;;;;726514;190;919811;-70
2021/08/05 08:11:23;;;;;;;5.40;4.00;;;;;;;;;;726361;191;918301;-69
2021/08/05 08:13:48;;;;;;;5.47;4.87;;;;;;;;;;727494;193;918074;-70
2021/08/05 08:16:14;;;;;;;4.73;4.23;;;;;;;;;;734634;190;919063;-71
2021/08/05 08:18:40;;;;;;;6.10;4.37;;;;;;;;;;726067;191;923945;-71
2021/08/05 08:21:06;;;;;;;6.67;3.90;;;;;;;;;;725654;191;915977;-69
2021/08/05 08:23:32;;;;;;;6.30;4.20;;;;;;;;;;731083;190;1036044;-69
2021/08/05 08:25:57;;;;;;;4.97;3.90;;;;;;;;;;728130;191;918615;-73
2021/08/05 08:28:23;;;;;;;6.93;3.80;;;;;;;;;;728856;192;917665;-71
2021/08/05 08:30:49;;;;;;;5.53;3.80;;;;;;;;;;731828;192;919221;-71
2021/08/05 08:33:16;;;;;;;4.70;3.50;;;;;;;;;;727671;191;918279;-72
2021/08/05 08:35:42;;;;;;;5.33;3.90;;;;;;;;;;727409;192;917484;-72
2021/08/05 08:38:08;;;;;;;3.97;3.30;;;;;;;;;;726737;192;930730;-71
2021/08/05 08:40:34;;;;;;;4.00;3.57;;;;;;;;;;726280;192;919829;-71
2021/08/05 08:43:00;;;;;;;4.07;2.90;;;;;;;;;;725428;191;919032;-72
2021/08/05 08:45:25;;;;;;;4.50;3.50;;;;;;;;;;726177;191;919551;-70
2021/08/05 08:47:51;;;;;;;4.50;2.53;;;;;;;;;;731027;192;918966;-71
2021/08/05 08:50:17;;;;;;;4.50;3.13;;;;;;;;;;726767;191;941270;-71
2021/08/05 08:52:43;;;;;;;4.70;3.40;;;;;;;;;;724730;192;1030066;-72
2021/08/05 08:55:09;;;;;;;3.97;3.20;;;;;;;;;;733355;192;918896;-72
2021/08/05 08:57:34;;;;;;;4.53;3.80;;;;;;;;;;725403;192;918810;-72
2021/08/05 09:00:00;;;;;;;6.57;3.17;;;;;;;;;;728118;191;918068;-72
2021/08/05 09:02:26;;;;;;;4.07;3.20;;;;;;;;;;730934;192;919483;-72
2021/08/05 09:04:52;;;;;;;4.80;2.70;;;;;;;;;;726096;193;919087;-73
2021/08/05 09:07:18;;;;;;;5.23;3.20;;;;;;;;;;724827;191;981227;-73
2021/08/05 09:09:44;;;;;;;4.50;3.57;;;;;;;;;;724651;193;918933;-72
2021/08/05 09:12:13;;;;;;;3.20;2.50;;;;;;;;;;730341;191;918778;-72
2021/08/05 09:14:41;;;;;;;3.20;2.63;;;;;;;;;;726855;191;919772;-73
2021/08/05 09:17:13;;;;;;;4.80;2.70;;;;;;;;;;727270;191;918360;-72
2021/08/05 09:19:39;;;;;;;4.82;3.12;;;;;;;;;;726242;191;919279;-72
2021/08/05 09:22:04;;;;;;;4.40;3.00;;;;;;;;;;733380;188;918114;-73
2021/08/05 09:24:30;;;;;;;3.80;2.95;;;;;;;;;;726518;191;919489;-73
2021/08/05 09:26:59;;;;;;;3.73;2.60;;;;;;;;;;726327;191;919086;-71
2021/08/05 09:29:23;;;;;;;3.80;2.92;;;;;;;;;;729649;192;918497;-72
2021/08/05 09:32:00;;;;;;;3.27;2.60;;;;;;;;;;726240;191;952993;-71
2021/08/05 09:34:31;;;;;;;4.45;3.25;;;;;;;;;;728573;191;920407;-72
2021/08/05 09:36:58;;;;;;;4.17;3.10;;;;;;;;;;727164;191;1019168;-70
2021/08/05 09:39:25;;;;;;;3.40;2.73;;;;;;;;;;730521;192;920107;-70
2021/08/05 09:41:51;;;;;;;4.40;2.87;;;;;;;;;;728311;192;919787;-71
2021/08/05 09:44:16;;;;;;;5.37;3.53;;;;;;;;;;727251;191;919102;-69
2021/08/05 09:46:42;;;;;;;4.37;2.57;;;;;;;;;;729923;190;918626;-68
2021/08/05 09:49:14;;;;;;;3.93;3.37;;;;;;;;;;731723;190;916260;-68
2021/08/05 09:51:40;;;;;;;3.93;2.70;;;;;;;;;;726601;191;915616;-70
2021/08/05 09:54:06;;;;;;;5.30;2.73;;;;;;;;;;726627;192;916009;-69
2021/08/05 09:56:32;;;;;;;3.50;3.00;;;;;;;;;;732201;192;916204;-69
2021/08/05 09:59:13;;;;;;;6.20;3.20;;;;;;;;;;726387;192;919829;-70
2021/08/05 10:01:45;;;;;;;3.13;2.80;;;;;;;;;;727282;192;919722;-70
2021/08/05 10:04:17;;;;;;;4.10;2.73;;;;;;;;;;726773;192;919256;-72
2021/08/05 10:07:00;;;;;;;3.87;2.50;;;;;;;;;;729472;192;919469;-72
2021/08/05 10:09:26;;;;;;;4.47;2.70;;;;;;;;;;724943;193;918908;-71
2021/08/05 10:11:52;;;;;;;4.63;3.07;;;;;;;;;;733058;192;895133;-70
2021/08/05 10:14:19;;;;;;;3.30;2.43;;;;;;;;;;726079;192;919290;-70
2021/08/05 10:16:44;;;;;;;3.37;2.80;;;;;;;;;;725557;192;919368;-71
2021/08/05 10:19:10;;;;;;;3.50;2.80;;;;;;;;;;725740;191;921021;-70
2021/08/05 10:21:37;;;;;;;3.30;2.70;;;;;;;;;;731062;191;918599;-68
2021/08/05 10:24:02;;;;;;;5.30;2.90;;;;;;;;;;727086;192;918561;-70
2021/08/05 10:26:28;;;;;;;4.50;3.12;;;;;;;;;;723621;192;919507;-72
2021/08/05 10:28:54;;;;;;;4.10;2.80;;;;;;;;;;730504;192;919461;-72
2021/08/05 10:31:19;;;;;;;4.40;3.10;;;;;;;;;;725672;190;919415;-71
2021/08/05 10:33:46;;;;;;;6.73;3.97;;;;;;;;;;724983;193;919041;-72
2021/08/05 10:36:11;;;;;;;3.63;3.10;;;;;;;;;;731791;192;919157;-72
2021/08/05 10:38:37;;;;;;;6.00;4.13;;;;;;;;;;725396;191;919206;-71
2021/08/05 10:41:03;;;;;;;5.90;4.03;;;;;;;;;;725683;189;919960;-73
2021/08/05 10:43:29;;;;;;;7.53;3.80;;;;;;;;;;727959;192;919026;-72
2021/08/05 10:45:55;;;;;;;7.57;4.80;;;;;;;;;;725628;191;1033333;-71
2021/08/05 10:48:20;;;;;;;7.03;4.20;;;;;;;;;;729403;192;919266;-72
2021/08/05 10:50:46;;;;;;;5.27;4.03;;;;;;;;;;728685;190;919654;-71
2021/08/05 10:53:13;;;;;;;5.17;4.40;;;;;;;;;;733903;191;921614;-73
2021/08/05 10:55:39;;;;;;;3.97;3.40;;;;;;;;;;726360;192;919396;-70
2021/08/05 10:58:19;;;;;;;4.85;3.78;;;;;;;;;;727085;192;922312;-71
2021/08/05 11:00:52;;;;;;;6.33;4.40;;;;;;;;;;728622;192;919746;-69
2021/08/05 11:03:40;;;;;;;5.75;4.05;;;;;;;;;;733865;192;919287;-70
2021/08/05 11:06:05;;;;;;;4.20;3.63;;;;;;;;;;725059;192;919111;-71
2021/08/05 11:08:31;;;;;;;4.50;4.00;;;;;;;;;;731074;191;919310;-69
2021/08/05 11:11:02;;;;;;;9.00;5.20;;;;;;;;;;727155;191;916866;-69
2021/08/05 11:13:28;;;;;;;6.30;4.83;;;;;;;;;;726004;191;918782;-70
2021/08/05 11:15:54;;;;;;;5.60;4.60;;;;;;;;;;733232;191;865437;-70
2021/08/05 11:18:20;;;;;;;13.30;4.70;;;;;;;;;;726026;191;1022049;-70
2021/08/05 11:20:46;;;;;;;5.13;4.63;;;;;;;;;;726862;191;919519;-69
2021/08/05 11:23:30;;;;;;;5.50;5.00;;;;;;;;;;726361;191;919409;-70
2021/08/05 11:26:03;;;;;;;6.87;5.10;;;;;;;;;;728668;188;947224;-69
2021/08/05 11:28:29;;;;;;;6.63;4.43;;;;;;;;;;732210;188;919345;-69
2021/08/05 11:30:55;;;;;;;6.37;5.27;;;;;;;;;;725239;190;920010;-69
2021/08/05 11:33:27;;;;;;;6.63;5.20;;;;;;;;;;726530;190;921119;-70
2021/08/05 11:35:53;;;;;;;5.93;5.00;;;;;;;;;;724955;191;1021412;-69
2021/08/05 11:38:19;;;;;;;8.03;5.10;;;;;;;;;;728162;191;919576;-69
2021/08/05 11:40:44;;;;;;;5.00;4.20;;;;;;;;;;727155;191;919325;-69
2021/08/05 11:43:16;;;;;;;6.03;5.40;;;;;;;;;;727030;192;921337;-69
2021/08/05 11:45:42;;;;;;;4.93;4.47;;;;;;;;;;731077;191;922311;-70
2021/08/05 11:48:08;;;;;;;5.50;4.80;;;;;;;;;;726511;190;915576;-70
2021/08/05 11:50:34;;;;;;;5.57;5.00;;;;;;;;;;726095;191;919440;-69
2021/08/05 11:53:00;;;;;;;5.20;4.20;;;;;;;;;;725833;190;917438;-68
2021/08/05 11:55:28;;;;;;;8.50;5.03;;;;;;;;;;731487;191;916498;-69
2021/08/05 11:57:52;;;;;;;7.13;4.80;;;;;;;;;;726210;189;915420;-69
2021/08/05 12:00:17;;;;;;;4.63;3.67;;;;;;;;;;726288;191;919611;-69
2021/08/05 12:02:43;;;;;;;4.70;4.20;;;;;;;;;;733845;191;920402;-70
2021/08/05 12:05:09;;;;;;;4.43;3.70;;;;;;;;;;731341;190;654848;-70
2021/08/05 12:07:36;;;;;;;5.20;4.47;;;;;;;;;;730491;190;618260;-68
2021/08/05 12:10:03;;;;;;;6.57;4.37;;;;;;;;;;731044;192;633775;-68
2021/08/05 12:12:29;;;;;;;6.73;4.73;;;;;;;;;;728296;190;622718;-67
2021/08/05 12:14:57;;;;;;;6.80;4.80;;;;;;;;;;731465;190;634638;-68
2021/08/05 12:17:37;;;;;;;4.90;4.40;;;;;;;;;;731651;192;623095;-67
2021/08/05 12:20:04;;;;;;;5.73;4.50;;;;;;;;;;731551;190;618314;-67
2021/08/05 12:22:31;;;;;;;5.17;4.67;;;;;;;;;;736110;190;641910;-67
2021/08/05 12:25:00;;;;;;;4.70;4.20;;;;;;;;;;730967;191;626916;-67
2021/08/05 12:27:23;;;;;;;7.47;5.23;;;;;;;;;;731034;191;636212;-67
2021/08/05 12:29:54;;;;;;;5.33;4.70;;;;;;;;;;732816;192;628344;-67
2021/08/05 12:32:20;;;;;;;6.10;4.87;;;;;;;;;;736458;192;622498;-67
2021/08/05 12:34:46;;;;;;;4.93;4.37;;;;;;;;;;730214;192;787686;-68
2021/08/05 12:37:12;;;;;;;4.90;4.40;;;;;;;;;;730451;190;618379;-67
2021/08/05 12:39:38;;;;;;;5.50;4.97;;;;;;;;;;733922;192;622435;-67
2021/08/05 12:42:04;;;;;;;6.50;4.83;;;;;;;;;;731075;192;629422;-67
2021/08/05 12:44:30;;;;;;;5.57;5.07;;;;;;;;;;728413;191;627405;-68
2021/08/05 12:46:56;;;;;;;6.47;5.13;;;;;;;;;;733997;191;617552;-69
2021/08/05 12:49:26;;;;;;;5.60;5.00;;;;;;;;;;729835;191;644632;-70
2021/08/05 12:51:55;;;;;;;6.37;5.07;;;;;;;;;;727996;191;630026;-69
2021/08/05 12:54:21;;;;;;;7.80;5.83;;;;;;;;;;729860;191;645802;-68
2021/08/05 12:56:47;;;;;;;6.63;5.60;;;;;;;;;;733987;190;613553;-68
2021/08/05 12:59:12;;;;;;;6.03;5.43;;;;;;;;;;729791;191;629995;-70
2021/08/05 13:01:38;;;;;;;6.67;5.60;;;;;;;;;;730948;192;630564;-68
2021/08/05 13:04:04;;;;;;;6.97;6.27;;;;;;;;;;733500;192;623753;-68
2021/08/05 13:06:36;;;;;;;8.40;6.63;;;;;;;;;;730976;191;628961;-67
2021/08/05 13:09:02;;;;;;;8.47;6.87;;;;;;;;;;729708;190;622595;-68
2021/08/05 13:11:33;;;;;;;8.47;7.33;;;;;;;;;;731063;190;735805;-71
2021/08/05 13:13:58;;;;;;;8.77;7.87;;;;;;;;;;736568;192;623529;-72
2021/08/05 13:16:25;;;;;;;9.07;8.17;;;;;;;;;;730384;190;638114;-69
2021/08/05 13:18:57;;;;;;;12.10;9.43;;;;;;;;;;731787;191;630168;-70
2021/08/05 13:21:23;;;;;;;10.47;9.40;;;;;;;;;;731802;191;628314;-69
2021/08/05 13:23:48;;;;;;;12.10;10.67;;;;;;;;;;734843;192;614713;-69
2021/08/05 13:26:14;;;;;;;18.50;10.60;;;;;;;;;;729734;190;727649;-70
2021/08/05 13:28:41;;;;;;;12.93;11.50;;;;;;;;;;728809;192;631019;-68
2021/08/05 13:31:06;;;;;;;12.87;11.40;;;;;;;;;;734166;192;637078;-71
2021/08/05 13:33:32;;;;;;;12.20;10.90;;;;;;;;;;731879;192;625754;-68
2021/08/05 13:35:58;;;;;;;18.80;12.60;;;;;;;;;;730082;192;638869;-70
2021/08/05 13:38:24;;;;;;;13.00;11.60;;;;;;;;;;735096;191;617654;-72
2021/08/05 13:40:49;;;;;;;14.20;12.50;;;;;;;;;;730063;191;618582;-71
2021/08/05 13:43:15;;;;;;;13.83;12.30;;;;;;;;;;730148;191;618321;-71
2021/08/05 13:45:41;;;;;;;14.23;12.27;;;;;;;;;;730610;191;630163;-69
2021/08/05 13:48:07;;;;;;;15.00;13.40;;;;;;;;;;735859;188;641847;-70
2021/08/05 13:50:33;;;;;;;13.17;11.77;;;;;;;;;;724972;190;628645;-69
2021/08/05 13:53:02;;;;;;;13.50;12.10;;;;;;;;;;731142;192;628212;-71
2021/08/05 13:55:28;;;;;;;14.37;11.27;;;;;;;;;;732095;192;623144;-70
2021/08/05 13:57:54;;;;;;;12.73;11.10;;;;;;;;;;730068;190;627682;-70
2021/08/05 14:00:20;;;;;;;12.00;10.70;;;;;;;;;;729131;191;627583;-70
2021/08/05 14:02:46;;;;;;;12.60;10.37;;;;;;;;;;735373;191;618519;-70
2021/08/05 14:05:12;;;;;;;8.53;7.63;;;;;;;;;;732679;191;626126;-71
2021/08/05 14:07:37;;;;;;;11.40;9.63;;;;;;;;;;730764;192;653124;-70
2021/08/05 14:10:04;;;;;;;10.43;9.25;;;;;;;;;;730767;192;626332;-70
2021/08/05 14:12:29;;;;;;;10.13;8.10;;;;;;;;;;742696;188;641930;-69